Time;durP1;ratioP1;P1;durP2;ratioP2;P2;SDS_P1;SDS_P2;PMS_P1;PMS_P2;Temp;Humidity;BMP_temperature;BMP_pressure;BME280_temperature;BME280_humidity;BME280_pressure;Samples;Min_cycle;Max_cycle;Signal;HPM_P1;HPM_P2
2023/11/22 00:01:20;;;;;;;25.33;13.32;;;7.20;99.90;;;;;;5052084;28;20040;-61
2023/11/22 00:03:45;;;;;;;23.75;12.70;;;7.30;99.90;;;;;;5053118;28;20483;-62
2023/11/22 00:06:11;;;;;;;25.65;13.18;;;7.20;99.90;;;;;;5047944;28;20390;-59
2023/11/22 00:08:37;;;;;;;24.25;13.40;;;7.20;99.90;;;;;;5052709;28;20025;-62
2023/11/22 00:11:05;;;;;;;23.60;12.50;;;7.20;99.90;;;;;;5050660;28;20025;-62
2023/11/22 00:13:31;;;;;;;23.58;12.10;;;7.20;99.90;;;;;;5049973;28;20116;-61
2023/11/22 00:15:57;;;;;;;25.42;13.45;;;7.20;99.90;;;;;;5050029;28;20475;-62
2023/11/22 00:18:24;;;;;;;20.70;12.15;;;7.20;99.90;;;;;;5049455;28;20063;-62
2023/11/22 00:20:49;;;;;;;25.75;13.43;;;7.20;99.90;;;;;;5047930;28;20017;-61
2023/11/22 00:23:15;;;;;;;28.77;12.77;;;7.20;99.90;;;;;;5051445;28;20024;-63
2023/11/22 00:25:41;;;;;;;25.85;13.35;;;7.10;99.90;;;;;;5048056;28;20063;-62
2023/11/22 00:28:06;;;;;;;23.08;12.43;;;7.10;99.90;;;;;;5050773;28;20060;-61
2023/11/22 00:30:32;;;;;;;24.45;12.50;;;7.10;99.90;;;;;;5039500;28;20064;-62
2023/11/22 00:32:58;;;;;;;24.15;11.75;;;7.10;99.90;;;;;;5053874;28;20156;-57
2023/11/22 00:35:23;;;;;;;22.08;13.10;;;7.10;99.90;;;;;;5048432;28;20041;-61
2023/11/22 00:37:49;;;;;;;35.22;13.18;;;7.10;99.90;;;;;;5051959;28;20025;-57
2023/11/22 00:40:14;;;;;;;25.15;13.32;;;7.10;99.90;;;;;;5049426;28;20502;-60
2023/11/22 00:42:42;;;;;;;23.17;12.80;;;7.10;99.90;;;;;;5046207;28;20033;-62
2023/11/22 00:45:09;;;;;;;26.38;13.55;;;7.00;99.90;;;;;;5047301;28;20056;-61
2023/11/22 00:47:35;;;;;;;29.75;14.63;;;7.00;99.90;;;;;;5049084;28;20035;-62
2023/11/22 00:50:04;;;;;;;24.85;12.95;;;7.10;99.90;;;;;;5044568;28;20124;-62
2023/11/22 00:52:30;;;;;;;24.88;14.18;;;7.10;99.90;;;;;;5050633;28;20052;-59
2023/11/22 00:54:56;;;;;;;26.42;13.30;;;7.10;99.90;;;;;;5045387;28;20137;-60
2023/11/22 00:57:21;;;;;;;24.52;12.88;;;7.10;99.90;;;;;;5048255;28;20029;-60
2023/11/22 00:59:47;;;;;;;25.88;13.68;;;7.10;99.90;;;;;;5045978;28;20396;-63
2023/11/22 01:02:13;;;;;;;27.88;12.35;;;7.00;99.90;;;;;;5043580;28;20450;-60
2023/11/22 01:04:40;;;;;;;27.75;14.10;;;7.00;99.90;;;;;;5050276;28;20051;-59
2023/11/22 01:07:06;;;;;;;23.98;12.68;;;7.10;99.90;;;;;;5052094;28;20083;-62
2023/11/22 01:09:32;;;;;;;38.00;14.15;;;7.10;99.90;;;;;;5041037;28;20501;-59
2023/11/22 01:11:58;;;;;;;23.13;13.55;;;7.10;99.90;;;;;;5050059;28;20040;-60
2023/11/22 01:14:24;;;;;;;27.25;13.23;;;7.00;99.90;;;;;;5047632;28;20025;-61
2023/11/22 01:16:49;;;;;;;27.20;13.32;;;7.00;99.90;;;;;;5045837;28;20051;-61
2023/11/22 01:19:15;;;;;;;25.60;13.77;;;7.00;99.90;;;;;;5047260;28;20112;-62
2023/11/22 01:21:41;;;;;;;29.27;14.35;;;7.00;99.90;;;;;;5049711;28;20394;-61
2023/11/22 01:24:07;;;;;;;26.33;14.05;;;7.00;99.90;;;;;;5047161;28;20025;-60
2023/11/22 01:26:32;;;;;;;25.35;14.23;;;7.00;99.90;;;;;;5045834;28;20108;-60
2023/11/22 01:29:00;;;;;;;26.92;14.32;;;7.00;99.90;;;;;;5044274;28;20159;-61
2023/11/22 01:31:27;;;;;;;26.70;14.02;;;7.00;99.90;;;;;;5049107;28;20040;-59
2023/11/22 01:33:53;;;;;;;36.70;14.30;;;7.00;99.90;;;;;;5047897;28;20611;-60
2023/11/22 01:36:19;;;;;;;26.75;14.25;;;7.10;99.90;;;;;;5045785;28;20033;-58
2023/11/22 01:38:46;;;;;;;24.65;13.75;;;7.10;99.90;;;;;;5045726;28;20033;-60
2023/11/22 01:41:13;;;;;;;24.80;14.43;;;7.10;99.90;;;;;;5044813;28;20616;-60
2023/11/22 01:43:42;;;;;;;34.03;15.10;;;7.10;99.90;;;;;;5050164;28;20025;-60
2023/11/22 01:46:08;;;;;;;26.30;14.05;;;7.00;99.90;;;;;;5041411;28;20025;-57
2023/11/22 01:48:35;;;;;;;24.52;13.68;;;7.00;99.90;;;;;;5053066;28;20469;-59
2023/11/22 01:51:01;;;;;;;26.23;14.38;;;7.00;99.90;;;;;;5045315;28;20051;-59
2023/11/22 01:53:27;;;;;;;26.08;13.73;;;7.00;99.90;;;;;;5047198;28;20569;-57
2023/11/22 01:55:53;;;;;;;30.35;15.23;;;7.10;99.90;;;;;;5042886;28;20029;-57
2023/11/22 01:58:18;;;;;;;30.77;14.50;;;7.10;99.90;;;;;;5047403;28;20017;-60
2023/11/22 02:00:48;;;;;;;33.45;14.40;;;7.10;99.90;;;;;;5048130;28;20553;-59
2023/11/22 02:03:14;;;;;;;27.40;13.98;;;7.10;99.90;;;;;;5047494;28;20029;-59
2023/11/22 02:05:45;;;;;;;25.38;14.77;;;7.10;99.90;;;;;;5043378;28;20029;-60
2023/11/22 02:08:11;;;;;;;25.90;13.27;;;7.00;99.90;;;;;;5044076;28;20033;-58
2023/11/22 02:10:37;;;;;;;27.58;14.68;;;7.00;99.90;;;;;;5042338;28;20022;-60
2023/11/22 02:13:04;;;;;;;29.00;13.98;;;6.90;99.90;;;;;;5047032;28;20032;-61
2023/11/22 02:15:30;;;;;;;30.42;13.50;;;6.80;99.90;;;;;;5048985;28;20029;-60
2023/11/22 02:17:57;;;;;;;26.58;14.50;;;6.90;99.90;;;;;;5049320;28;20029;-61
2023/11/22 02:20:22;;;;;;;27.52;14.30;;;6.90;99.90;;;;;;5048100;28;20021;-60
2023/11/22 02:22:48;;;;;;;31.73;15.13;;;6.90;99.90;;;;;;5050923;28;20407;-61
2023/11/22 02:25:17;;;;;;;31.25;13.32;;;6.90;99.90;;;;;;5045805;28;20150;-59
2023/11/22 02:27:42;;;;;;;28.63;14.63;;;6.90;99.90;;;;;;5047318;28;20029;-58
2023/11/22 02:30:09;;;;;;;23.55;13.55;;;6.90;99.90;;;;;;5043293;28;20418;-59
2023/11/22 02:32:34;;;;;;;29.83;14.95;;;6.90;99.90;;;;;;5047911;28;20029;-61
2023/11/22 02:35:00;;;;;;;30.45;15.25;;;6.90;99.90;;;;;;5052064;28;20036;-59
2023/11/22 02:37:27;;;;;;;30.98;15.23;;;6.90;99.90;;;;;;5042024;28;20032;-59
2023/11/22 02:40:05;;;;;;;32.00;13.73;;;6.90;99.90;;;;;;5042184;28;20428;-59
2023/11/22 02:42:30;;;;;;;26.23;12.82;;;6.80;99.90;;;;;;5046523;28;20037;-59
2023/11/22 02:44:57;;;;;;;23.20;13.20;;;6.90;99.90;;;;;;5045925;28;20036;-55
2023/11/22 02:47:22;;;;;;;26.25;13.38;;;6.90;99.90;;;;;;5044224;28;20029;-56
2023/11/22 02:49:48;;;;;;;30.05;14.48;;;6.90;99.90;;;;;;5045071;28;20120;-61
2023/11/22 02:52:14;;;;;;;26.67;14.40;;;6.90;99.90;;;;;;5043721;28;20206;-61
2023/11/22 02:54:43;;;;;;;25.20;12.95;;;7.00;99.90;;;;;;5046160;28;20448;-60
2023/11/22 02:57:09;;;;;;;25.02;13.43;;;6.90;99.90;;;;;;5043169;28;20117;-59
2023/11/22 02:59:34;;;;;;;23.42;13.07;;;6.90;99.90;;;;;;5040455;28;20424;-61
2023/11/22 03:02:01;;;;;;;26.02;14.23;;;6.90;99.90;;;;;;5044750;28;20457;-60
2023/11/22 03:04:28;;;;;;;23.75;13.30;;;6.90;99.90;;;;;;5046436;28;20121;-61
2023/11/22 03:06:54;;;;;;;25.85;13.13;;;6.90;99.90;;;;;;5055033;28;20027;-59
2023/11/22 03:09:19;;;;;;;27.60;13.75;;;6.80;99.90;;;;;;5044398;28;20036;-59
2023/11/22 03:11:45;;;;;;;22.90;13.55;;;6.80;99.90;;;;;;5051813;28;20043;-60
2023/11/22 03:14:10;;;;;;;22.95;12.57;;;6.70;99.90;;;;;;5050669;28;20029;-59
2023/11/22 03:16:39;;;;;;;24.17;12.40;;;6.70;99.90;;;;;;5052277;28;20055;-57
2023/11/22 03:19:06;;;;;;;25.15;13.80;;;6.70;99.90;;;;;;5050015;28;20049;-59
2023/11/22 03:21:32;;;;;;;22.52;12.40;;;6.70;99.90;;;;;;5046644;28;20025;-60
2023/11/22 03:23:59;;;;;;;26.27;13.60;;;6.60;99.90;;;;;;5049635;28;20540;-60
2023/11/22 03:26:25;;;;;;;21.63;13.02;;;6.60;99.90;;;;;;5045969;28;20025;-61
2023/11/22 03:28:50;;;;;;;27.88;13.25;;;6.60;99.90;;;;;;5049209;28;20024;-60
2023/11/22 03:31:16;;;;;;;23.55;13.50;;;6.50;99.90;;;;;;5044459;28;20482;-61
2023/11/22 03:33:42;;;;;;;26.92;13.95;;;6.60;99.90;;;;;;5048916;28;20382;-60
2023/11/22 03:36:11;;;;;;;28.73;13.48;;;6.60;99.90;;;;;;5051318;28;20017;-60
2023/11/22 03:38:36;;;;;;;22.90;13.48;;;6.60;99.90;;;;;;5057420;28;20028;-58
2023/11/22 03:41:02;;;;;;;26.85;13.77;;;6.50;99.90;;;;;;5047833;28;20437;-60
2023/11/22 03:43:27;;;;;;;26.00;13.65;;;6.50;99.90;;;;;;5052518;28;20237;-60
2023/11/22 03:45:53;;;;;;;26.90;13.68;;;6.50;99.90;;;;;;5049082;28;20491;-60
2023/11/22 03:48:18;;;;;;;26.63;14.27;;;6.40;99.90;;;;;;5049842;28;20036;-60
2023/11/22 03:50:44;;;;;;;24.45;12.73;;;6.40;99.90;;;;;;5042861;28;20025;-61
2023/11/22 03:53:09;;;;;;;30.38;13.20;;;6.30;99.90;;;;;;5048508;28;20028;-58
2023/11/22 03:55:35;;;;;;;24.63;13.52;;;6.30;99.90;;;;;;5047753;28;20021;-59
2023/11/22 03:58:01;;;;;;;30.05;14.23;;;6.30;99.90;;;;;;5045145;28;20463;-58
2023/11/22 04:00:26;;;;;;;29.75;14.25;;;6.20;99.90;;;;;;5049755;28;20420;-60
2023/11/22 04:02:52;;;;;;;26.23;13.52;;;6.20;99.90;;;;;;5048085;28;20029;-62
2023/11/22 04:05:19;;;;;;;26.92;13.93;;;6.10;99.90;;;;;;5053885;28;20031;-60
2023/11/22 04:07:45;;;;;;;27.48;13.30;;;6.10;99.90;;;;;;5051471;28;20028;-61
2023/11/22 04:10:10;;;;;;;28.13;13.60;;;6.20;99.90;;;;;;5049222;28;20025;-61
2023/11/22 04:12:37;;;;;;;27.52;15.93;;;6.10;99.90;;;;;;5050545;28;20545;-60
2023/11/22 04:15:03;;;;;;;36.20;15.43;;;6.00;99.90;;;;;;5051209;28;20396;-61
2023/11/22 04:17:29;;;;;;;28.15;14.27;;;6.00;99.90;;;;;;5050678;28;20037;-60
2023/11/22 04:19:54;;;;;;;26.10;13.40;;;5.90;99.90;;;;;;5049449;28;20150;-59
2023/11/22 04:22:20;;;;;;;31.60;15.25;;;5.90;99.90;;;;;;5042361;28;20488;-60
2023/11/22 04:24:45;;;;;;;24.80;13.82;;;5.90;99.90;;;;;;5043032;28;20139;-60
2023/11/22 04:27:11;;;;;;;24.55;13.70;;;5.90;99.90;;;;;;5042530;28;20041;-59
2023/11/22 04:29:36;;;;;;;27.75;13.93;;;5.80;99.90;;;;;;5046016;28;20507;-59
2023/11/22 04:32:02;;;;;;;38.13;14.77;;;5.70;99.90;;;;;;5054280;28;20064;-61
2023/11/22 04:34:28;;;;;;;28.88;14.98;;;5.70;99.90;;;;;;5051026;28;20472;-61
2023/11/22 04:36:53;;;;;;;32.95;15.82;;;5.80;99.90;;;;;;5042566;28;20025;-59
2023/11/22 04:39:19;;;;;;;34.30;15.65;;;5.70;99.90;;;;;;5048486;28;20029;-59
2023/11/22 04:41:44;;;;;;;33.78;15.10;;;5.70;99.90;;;;;;5043075;28;20035;-59
2023/11/22 04:44:10;;;;;;;34.10;17.98;;;5.60;99.90;;;;;;5049926;28;20024;-58
2023/11/22 04:46:35;;;;;;;31.27;16.02;;;5.60;99.90;;;;;;5051341;28;20020;-57
2023/11/22 04:49:01;;;;;;;35.33;17.48;;;5.50;99.90;;;;;;5049696;28;20036;-58
2023/11/22 04:51:29;;;;;;;30.70;16.63;;;5.50;99.90;;;;;;5043962;28;20059;-59
2023/11/22 04:53:54;;;;;;;29.58;15.90;;;5.40;99.90;;;;;;5046029;28;20540;-61
2023/11/22 04:56:20;;;;;;;32.95;15.57;;;5.40;99.90;;;;;;5048214;28;20040;-61
2023/11/22 04:58:45;;;;;;;33.03;16.75;;;5.40;99.90;;;;;;5042883;28;20392;-60
2023/11/22 05:01:11;;;;;;;38.92;17.52;;;5.40;99.90;;;;;;5050606;28;20025;-61
2023/11/22 05:03:37;;;;;;;34.10;17.83;;;5.40;99.90;;;;;;5049529;28;20021;-58
2023/11/22 05:06:03;;;;;;;39.33;18.10;;;5.30;99.90;;;;;;5046856;28;20028;-61
2023/11/22 05:08:30;;;;;;;25.45;13.77;;;5.30;99.90;;;;;;5045262;28;20182;-61
2023/11/22 05:10:55;;;;;;;31.83;15.85;;;4.80;99.90;;;;;;5045683;28;20025;-61
2023/11/22 05:13:21;;;;;;;32.45;16.80;;;4.70;99.90;;;;;;5044994;28;20413;-61
2023/11/22 05:15:47;;;;;;;33.45;16.23;;;4.50;99.90;;;;;;5049877;28;20036;-61
2023/11/22 05:18:12;;;;;;;33.03;15.30;;;4.40;99.90;;;;;;5049284;28;20499;-60
2023/11/22 05:20:38;;;;;;;34.10;15.52;;;4.20;99.90;;;;;;5045386;28;20076;-59
2023/11/22 05:23:04;;;;;;;39.38;16.80;;;4.10;99.90;;;;;;5045269;28;20395;-59
2023/11/22 05:25:29;;;;;;;31.63;16.40;;;4.10;99.90;;;;;;5046066;28;20368;-59
2023/11/22 05:27:55;;;;;;;37.42;17.27;;;4.00;99.90;;;;;;5050900;28;20021;-60
2023/11/22 05:30:21;;;;;;;37.08;17.33;;;3.90;99.90;;;;;;5050104;28;20123;-58
2023/11/22 05:32:48;;;;;;;36.90;17.13;;;3.90;99.90;;;;;;5045488;28;20491;-56
2023/11/22 05:35:14;;;;;;;38.50;17.25;;;3.90;99.90;;;;;;5046852;28;20509;-59
2023/11/22 05:37:40;;;;;;;39.63;16.42;;;3.90;99.90;;;;;;5045013;28;20390;-59
2023/11/22 05:40:09;;;;;;;38.22;17.10;;;3.90;99.90;;;;;;5045057;28;20123;-61
2023/11/22 05:42:35;;;;;;;36.25;17.65;;;3.90;99.90;;;;;;5043111;28;20115;-59
2023/11/22 05:45:01;;;;;;;38.53;18.60;;;3.90;99.90;;;;;;5049368;28;20496;-60
2023/11/22 05:47:26;;;;;;;37.55;17.75;;;4.00;99.90;;;;;;5047502;28;20106;-61
2023/11/22 05:49:52;;;;;;;45.50;18.38;;;4.10;99.90;;;;;;5044392;28;20086;-59
2023/11/22 05:52:18;;;;;;;33.13;17.50;;;4.20;99.90;;;;;;5037341;28;20783;-58
2023/11/22 05:54:43;;;;;;;37.97;18.63;;;4.20;99.90;;;;;;5034510;28;20112;-61
2023/11/22 05:57:09;;;;;;;41.33;18.48;;;4.20;99.90;;;;;;5041701;28;20535;-61
2023/11/22 05:59:35;;;;;;;45.83;17.80;;;4.20;99.90;;;;;;5042301;28;20025;-60
2023/11/22 06:02:01;;;;;;;41.20;17.55;;;4.20;99.90;;;;;;5036654;28;20026;-60
2023/11/22 06:04:26;;;;;;;32.35;16.60;;;4.10;99.90;;;;;;5042610;28;20032;-61
2023/11/22 06:06:52;;;;;;;38.33;17.50;;;4.00;99.90;;;;;;5046273;28;20029;-60
2023/11/22 06:09:17;;;;;;;39.30;18.50;;;4.00;99.90;;;;;;5042560;28;20033;-60
2023/11/22 06:11:43;;;;;;;37.05;18.85;;;3.80;99.90;;;;;;5045862;28;20056;-59
2023/11/22 06:14:09;;;;;;;38.88;17.15;;;3.60;99.90;;;;;;5044186;28;20039;-61
2023/11/22 06:16:34;;;;;;;39.15;17.38;;;3.50;99.90;;;;;;5046513;28;20035;-59
2023/11/22 06:19:00;;;;;;;41.88;18.65;;;3.50;99.90;;;;;;5044948;28;20051;-59
2023/11/22 06:21:26;;;;;;;36.30;18.38;;;3.30;99.90;;;;;;5043122;28;20070;-59
2023/11/22 06:23:55;;;;;;;38.63;17.27;;;3.30;99.90;;;;;;5048189;28;20053;-58
2023/11/22 06:26:20;;;;;;;38.90;18.35;;;3.30;99.90;;;;;;5042961;28;20036;-55
2023/11/22 06:28:48;;;;;;;43.90;18.80;;;3.20;99.90;;;;;;5043708;28;20033;-59
2023/11/22 06:31:13;;;;;;;46.53;20.52;;;3.20;99.90;;;;;;5048402;28;20104;-59
2023/11/22 06:33:39;;;;;;;54.05;21.73;;;3.20;99.90;;;;;;5041414;28;20116;-61
2023/11/22 06:36:05;;;;;;;47.38;21.00;;;3.10;99.90;;;;;;5044141;28;20021;-59
2023/11/22 06:38:30;;;;;;;54.92;21.15;;;3.10;99.90;;;;;;5045404;28;20031;-59
2023/11/22 06:40:56;;;;;;;44.63;19.02;;;3.00;99.90;;;;;;5048087;28;20093;-62
2023/11/22 06:43:22;;;;;;;52.75;20.42;;;2.90;99.90;;;;;;5057831;28;20124;-62
2023/11/22 06:45:48;;;;;;;49.85;19.08;;;2.90;99.90;;;;;;5045639;28;20033;-61
2023/11/22 06:48:13;;;;;;;46.97;19.20;;;2.90;99.90;;;;;;5055594;28;20036;-61
2023/11/22 06:50:39;;;;;;;48.33;19.90;;;2.90;99.90;;;;;;5054515;28;20045;-62
2023/11/22 06:53:05;;;;;;;42.15;19.80;;;2.80;99.90;;;;;;5054375;28;20025;-63
2023/11/22 06:55:33;;;;;;;49.85;20.55;;;2.80;99.90;;;;;;5050607;28;20029;-62
2023/11/22 06:57:59;;;;;;;42.92;19.00;;;2.80;99.90;;;;;;5047078;28;20030;-63
2023/11/22 07:00:26;;;;;;;43.47;17.92;;;2.70;99.90;;;;;;5045154;28;20025;-57
2023/11/22 07:02:52;;;;;;;43.13;18.08;;;2.70;99.90;;;;;;5048382;28;20066;-59
2023/11/22 07:05:18;;;;;;;44.95;17.98;;;2.60;99.90;;;;;;5052001;28;20522;-63
2023/11/22 07:07:44;;;;;;;46.88;17.45;;;2.60;99.90;;;;;;5052904;28;20040;-61
2023/11/22 07:10:11;;;;;;;40.28;17.75;;;2.50;99.90;;;;;;5049936;28;20475;-61
2023/11/22 07:12:37;;;;;;;42.95;19.60;;;2.50;99.90;;;;;;5063067;28;20021;-62
2023/11/22 07:15:05;;;;;;;43.25;18.27;;;2.50;99.90;;;;;;5052791;28;20017;-62
2023/11/22 07:17:33;;;;;;;42.78;17.75;;;2.50;99.90;;;;;;5046095;28;20017;-62
2023/11/22 07:20:00;;;;;;;44.58;20.02;;;2.40;99.90;;;;;;5053726;28;20021;-62
2023/11/22 07:22:26;;;;;;;43.90;19.35;;;2.50;99.90;;;;;;5052557;28;20048;-61
2023/11/22 07:24:53;;;;;;;47.58;19.33;;;2.50;99.90;;;;;;5053638;28;20034;-63
2023/11/22 07:27:19;;;;;;;54.97;19.48;;;2.50;99.90;;;;;;5047012;28;20039;-62
2023/11/22 07:29:46;;;;;;;39.47;17.25;;;2.40;99.90;;;;;;5053127;28;20099;-62
2023/11/22 07:32:12;;;;;;;40.78;18.15;;;2.40;99.90;;;;;;5059268;28;20511;-61
2023/11/22 07:34:39;;;;;;;46.33;18.55;;;2.50;99.90;;;;;;5053963;28;20061;-62
2023/11/22 07:37:08;;;;;;;48.35;18.42;;;2.50;99.90;;;;;;5057679;28;20021;-62
2023/11/22 07:39:35;;;;;;;52.00;18.38;;;2.50;99.90;;;;;;5050865;28;20021;-62
2023/11/22 07:42:02;;;;;;;47.03;18.58;;;2.60;99.90;;;;;;5053872;28;20040;-63
2023/11/22 07:44:27;;;;;;;43.50;18.60;;;2.60;99.90;;;;;;5048672;28;20021;-62
2023/11/22 07:46:53;;;;;;;48.97;21.25;;;2.70;99.90;;;;;;5046815;28;20079;-62
2023/11/22 07:49:22;;;;;;;44.47;18.67;;;2.80;99.90;;;;;;5053593;28;20439;-61
2023/11/22 07:51:51;;;;;;;48.78;20.38;;;3.00;99.90;;;;;;5051647;28;20073;-61
2023/11/22 07:54:18;;;;;;;46.75;19.40;;;3.10;99.90;;;;;;5052177;28;20036;-60
2023/11/22 07:56:44;;;;;;;46.85;18.83;;;3.30;99.90;;;;;;5049442;28;20036;-62
2023/11/22 07:59:13;;;;;;;44.72;20.40;;;3.40;99.90;;;;;;5053452;28;20021;-62
2023/11/22 08:01:39;;;;;;;50.70;20.27;;;3.50;99.90;;;;;;5049905;28;20445;-60
2023/11/22 08:04:05;;;;;;;43.00;19.00;;;3.60;99.90;;;;;;5050119;28;20017;-60
2023/11/22 08:06:31;;;;;;;49.33;19.88;;;3.70;99.90;;;;;;5047915;28;20376;-60
2023/11/22 08:09:01;;;;;;;43.47;19.02;;;3.70;99.90;;;;;;5047049;28;20510;-63
2023/11/22 08:11:27;;;;;;;45.55;19.73;;;3.60;99.90;;;;;;5051961;28;20112;-63
2023/11/22 08:13:54;;;;;;;47.05;19.13;;;3.60;99.90;;;;;;5046896;28;20030;-62
2023/11/22 08:16:20;;;;;;;44.28;17.95;;;3.60;99.90;;;;;;5051674;28;20017;-61
2023/11/22 08:18:46;;;;;;;49.53;18.83;;;3.60;99.90;;;;;;5050324;28;20028;-61
2023/11/22 08:21:11;;;;;;;41.17;18.73;;;3.60;99.90;;;;;;5053420;28;20044;-62
2023/11/22 08:23:37;;;;;;;46.75;18.80;;;3.60;99.90;;;;;;5046398;28;20025;-61
2023/11/22 08:26:04;;;;;;;43.63;19.45;;;3.60;99.90;;;;;;5050077;28;20518;-61
2023/11/22 08:28:30;;;;;;;49.47;19.95;;;3.70;99.90;;;;;;5052094;28;20044;-58
2023/11/22 08:30:55;;;;;;;49.83;19.95;;;3.80;99.90;;;;;;5049521;28;20021;-60
2023/11/22 08:33:22;;;;;;;43.67;19.50;;;3.90;99.90;;;;;;5049742;28;20025;-61
2023/11/22 08:35:50;;;;;;;40.03;17.88;;;4.00;99.90;;;;;;5048932;28;20463;-61
2023/11/22 08:38:16;;;;;;;45.20;19.95;;;4.10;99.90;;;;;;5043818;28;20021;-60
2023/11/22 08:40:42;;;;;;;47.58;19.05;;;4.20;99.90;;;;;;5047555;28;20033;-62
2023/11/22 08:43:08;;;;;;;48.08;17.42;;;4.30;99.90;;;;;;5050432;28;20086;-61
2023/11/22 08:45:34;;;;;;;43.63;18.33;;;4.40;99.90;;;;;;5046073;28;20242;-61
2023/11/22 08:48:00;;;;;;;41.40;18.45;;;4.50;99.90;;;;;;5048719;28;20048;-62
2023/11/22 08:50:25;;;;;;;37.47;18.63;;;4.60;99.90;;;;;;5048373;28;20067;-62
2023/11/22 08:52:54;;;;;;;33.47;15.77;;;4.60;99.90;;;;;;5050558;28;20044;-62
2023/11/22 08:55:21;;;;;;;39.90;18.45;;;4.60;99.90;;;;;;5049015;28;20021;-60
2023/11/22 08:57:48;;;;;;;36.55;17.10;;;4.70;99.90;;;;;;5044622;28;20036;-63
2023/11/22 09:00:14;;;;;;;40.47;18.10;;;4.80;99.90;;;;;;5049217;28;20025;-62
2023/11/22 09:02:40;;;;;;;35.92;16.80;;;4.80;99.90;;;;;;5044546;28;20032;-60
2023/11/22 09:05:12;;;;;;;38.45;18.70;;;4.80;99.90;;;;;;5047944;28;20086;-62
2023/11/22 09:07:38;;;;;;;33.22;15.15;;;4.90;99.90;;;;;;5046655;28;20051;-62
2023/11/22 09:10:11;;;;;;;35.67;16.13;;;5.00;99.90;;;;;;5045473;28;20130;-62
2023/11/22 09:12:40;;;;;;;31.17;14.85;;;5.00;99.90;;;;;;5048688;28;20048;-63
2023/11/22 09:15:15;;;;;;;29.05;15.73;;;5.10;99.90;;;;;;5044852;28;20436;-62
2023/11/22 09:17:46;;;;;;;35.70;14.85;;;5.20;99.90;;;;;;5045190;28;20025;-62
2023/11/22 09:20:15;;;;;;;30.13;14.00;;;5.30;99.90;;;;;;5046264;28;20021;-62
2023/11/22 09:22:47;;;;;;;39.42;14.30;;;5.40;99.90;;;;;;5048586;28;20108;-62
2023/11/22 09:25:22;;;;;;;25.75;11.65;;;5.50;99.90;;;;;;5051632;28;20033;-61
2023/11/22 09:27:51;;;;;;;21.80;11.40;;;5.50;99.90;;;;;;5046090;28;20036;-58
2023/11/22 09:30:34;;;;;;;26.20;11.30;;;5.60;99.90;;;;;;5045537;28;20083;-61
2023/11/22 09:33:12;;;;;;;25.90;11.30;;;5.70;99.90;;;;;;5048607;28;20031;-62
2023/11/22 09:35:39;;;;;;;24.42;11.45;;;5.70;99.90;;;;;;5046623;28;20556;-62
2023/11/22 09:38:11;;;;;;;20.52;10.50;;;5.80;99.90;;;;;;5049267;28;20014;-62
2023/11/22 09:40:47;;;;;;;19.65;10.90;;;5.90;99.90;;;;;;5049494;28;20025;-63
2023/11/22 09:43:17;;;;;;;17.50;9.75;;;5.90;99.90;;;;;;5048926;28;20458;-62
2023/11/22 09:45:49;;;;;;;19.50;9.70;;;6.00;99.90;;;;;;5050890;28;20040;-60
2023/11/22 09:48:16;;;;;;;23.73;10.40;;;6.00;99.90;;;;;;5049040;28;20021;-62
2023/11/22 09:50:47;;;;;;;22.38;8.57;;;6.10;99.90;;;;;;5046207;28;20056;-57
2023/11/22 09:53:40;;;;;;;16.05;9.05;;;6.10;99.90;;;;;;5049932;28;20039;-57
2023/11/22 09:56:09;;;;;;;14.52;8.23;;;6.20;99.90;;;;;;5048964;28;20041;-61
2023/11/22 09:58:38;;;;;;;13.25;6.65;;;6.30;99.90;;;;;;5047351;28;20479;-59
2023/11/22 10:01:04;;;;;;;13.43;6.38;;;6.40;99.90;;;;;;5047468;28;20430;-59
2023/11/22 10:03:30;;;;;;;12.70;6.13;;;6.50;99.90;;;;;;5044609;28;20343;-59
2023/11/22 10:05:59;;;;;;;7.72;3.42;;;6.70;99.90;;;;;;5045471;28;20111;-62
2023/11/22 10:08:29;;;;;;;3.75;1.90;;;6.60;99.90;;;;;;5047775;28;20498;-61
2023/11/22 10:10:54;;;;;;;4.63;2.05;;;6.80;99.90;;;;;;5046658;28;20491;-62
2023/11/22 10:13:20;;;;;;;3.13;1.88;;;6.90;99.90;;;;;;5048782;28;20120;-61
2023/11/22 10:15:50;;;;;;;2.80;1.90;;;7.00;99.90;;;;;;5049577;28;20040;-61
2023/11/22 10:18:17;;;;;;;10.60;2.25;;;7.10;99.90;;;;;;5043895;28;20033;-60
2023/11/22 10:20:46;;;;;;;3.88;2.22;;;6.90;99.90;;;;;;5045876;28;20049;-60
2023/11/22 10:23:14;;;;;;;4.38;1.83;;;7.10;99.90;;;;;;5046409;28;20168;-60
2023/11/22 10:25:53;;;;;;;9.38;2.25;;;7.20;99.90;;;;;;5046808;28;20483;-60
2023/11/22 10:28:25;;;;;;;3.75;2.30;;;7.30;99.90;;;;;;5045878;28;20051;-62
2023/11/22 10:30:51;;;;;;;3.15;2.10;;;7.40;99.90;;;;;;5045573;28;20082;-59
2023/11/22 10:33:19;;;;;;;3.33;1.80;;;7.50;99.90;;;;;;5039756;28;20479;-59
2023/11/22 10:35:46;;;;;;;8.55;2.55;;;7.50;99.90;;;;;;5042486;28;20048;-62
2023/11/22 10:38:16;;;;;;;4.88;2.25;;;7.40;99.90;;;;;;5046923;28;20075;-61
2023/11/22 10:40:44;;;;;;;6.43;2.08;;;7.50;99.90;;;;;;5042059;28;20033;-61
2023/11/22 10:43:11;;;;;;;4.38;2.15;;;7.70;99.90;;;;;;5047906;28;20068;-61
2023/11/22 10:45:38;;;;;;;4.43;1.67;;;7.40;99.90;;;;;;5044300;28;20032;-60
2023/11/22 10:48:05;;;;;;;9.13;2.25;;;7.50;99.90;;;;;;5044583;28;20028;-62
2023/11/22 10:50:30;;;;;;;3.33;2.17;;;7.60;99.90;;;;;;5042092;28;20026;-60
2023/11/22 10:52:59;;;;;;;3.60;1.63;;;7.60;99.90;;;;;;5042969;28;20487;-59
2023/11/22 10:55:32;;;;;;;2.50;1.45;;;7.70;99.90;;;;;;5042020;28;20025;-62
2023/11/22 10:58:02;;;;;;;10.50;2.47;;;7.60;99.90;;;;;;5042878;28;20040;-62
2023/11/22 11:00:32;;;;;;;5.22;2.00;;;7.70;99.90;;;;;;5044171;28;20044;-58
2023/11/22 11:03:01;;;;;;;6.82;2.40;;;7.80;99.90;;;;;;5044260;28;20112;-57
2023/11/22 11:05:33;;;;;;;4.03;2.28;;;7.70;99.90;;;;;;5045099;28;20078;-60
2023/11/22 11:08:10;;;;;;;4.38;2.53;;;7.80;99.90;;;;;;5046072;28;20037;-59
2023/11/22 11:10:46;;;;;;;3.35;1.67;;;8.00;99.90;;;;;;5036051;28;20036;-56
2023/11/22 11:13:15;;;;;;;3.42;1.58;;;8.10;99.90;;;;;;5043404;28;20029;-61
2023/11/22 11:15:45;;;;;;;4.43;1.73;;;8.30;99.90;;;;;;5045641;28;20024;-61
2023/11/22 11:18:17;;;;;;;3.05;1.70;;;8.30;99.90;;;;;;5044125;28;20033;-59
2023/11/22 11:20:53;;;;;;;4.05;1.98;;;8.30;99.90;;;;;;5042104;28;20025;-57
2023/11/22 11:23:28;;;;;;;4.05;1.65;;;8.50;99.90;;;;;;5038532;28;20381;-62
2023/11/22 11:25:59;;;;;;;3.00;1.73;;;8.60;99.90;;;;;;5046160;28;20056;-62
2023/11/22 11:28:26;;;;;;;2.63;1.45;;;8.60;99.90;;;;;;5050838;28;20525;-63
2023/11/22 11:30:53;;;;;;;2.95;1.90;;;8.00;99.90;;;;;;5046477;28;20470;-63
2023/11/22 11:33:34;;;;;;;9.90;1.52;;;8.00;99.90;;;;;;5047763;28;20466;-61
2023/11/22 11:36:03;;;;;;;2.22;1.50;;;8.10;99.90;;;;;;5048942;28;20104;-61
2023/11/22 11:38:35;;;;;;;3.80;2.15;;;7.80;99.90;;;;;;5051446;28;20087;-61
2023/11/22 11:41:11;;;;;;;6.80;2.40;;;8.00;99.90;;;;;;5045105;28;20559;-61
2023/11/22 11:43:48;;;;;;;7.25;2.20;;;8.20;99.90;;;;;;5049378;28;20103;-60
2023/11/22 11:46:15;;;;;;;5.97;2.17;;;8.30;99.90;;;;;;5047643;28;20021;-62
2023/11/22 11:48:45;;;;;;;5.95;2.78;;;8.50;99.90;;;;;;5047882;28;20029;-59
2023/11/22 11:51:15;;;;;;;4.00;2.15;;;8.70;99.90;;;;;;5046343;28;20032;-62
2023/11/22 11:53:41;;;;;;;3.72;2.53;;;8.80;99.90;;;;;;5043485;28;20033;-62
2023/11/22 11:56:07;;;;;;;3.75;2.03;;;8.60;99.90;;;;;;5043727;28;20476;-62
2023/11/22 11:58:33;;;;;;;7.50;2.17;;;8.40;99.90;;;;;;5047556;28;20483;-61
2023/11/22 12:00:59;;;;;;;4.00;2.42;;;8.50;99.90;;;;;;5046493;28;20492;-60
2023/11/22 12:03:24;;;;;;;10.02;2.80;;;8.60;99.90;;;;;;5048286;28;20035;-57
2023/11/22 12:05:50;;;;;;;5.80;2.78;;;8.80;99.90;;;;;;5048876;28;20033;-58
2023/11/22 12:08:16;;;;;;;8.88;2.63;;;8.60;99.90;;;;;;5044252;28;20060;-61
2023/11/22 12:10:42;;;;;;;4.75;2.40;;;8.50;99.90;;;;;;5048461;28;20164;-63
2023/11/22 12:13:08;;;;;;;4.57;2.50;;;8.50;99.90;;;;;;5047444;28;20127;-59
2023/11/22 12:15:34;;;;;;;3.65;2.38;;;8.40;99.90;;;;;;5045078;28;20029;-60
2023/11/22 12:18:01;;;;;;;6.40;3.80;;;8.80;99.90;;;;;;5046650;28;20025;-57
2023/11/22 12:20:31;;;;;;;7.22;4.07;;;9.00;99.90;;;;;;5050020;28;20060;-59
2023/11/22 12:23:00;;;;;;;6.30;3.83;;;9.10;99.90;;;;;;5046207;28;20036;-59
2023/11/22 12:25:30;;;;;;;9.52;4.35;;;9.10;99.90;;;;;;5049993;28;20040;-59
2023/11/22 12:27:56;;;;;;;7.85;4.75;;;8.70;99.90;;;;;;5049027;28;20037;-59
2023/11/22 12:30:32;;;;;;;14.48;4.70;;;8.80;99.90;;;;;;5046916;28;20067;-60
2023/11/22 12:33:08;;;;;;;9.10;4.13;;;8.80;99.90;;;;;;5049301;28;20122;-60
2023/11/22 12:35:34;;;;;;;9.90;4.85;;;8.30;99.90;;;;;;5049261;28;20098;-60
2023/11/22 12:38:01;;;;;;;8.40;4.22;;;8.00;99.90;;;;;;5046033;28;20124;-59
2023/11/22 12:40:33;;;;;;;9.57;4.72;;;7.90;99.90;;;;;;5046432;28;20044;-58